<?xml version="1.0" encoding="UTF-8" standalone="no" ?>
<gpx xmlns="http://www.topografix.com/GPX/1/1" xmlns:xsi="http://www.w3.org/2001/XMLSchema-instance" xsi:schemaLocation="http://www.topografix.com/GPX/1/1 http://www.topografix.com/GPX/1/1/gpx.xsd" version="1.1" creator="VisuGPX - https://www.visugpx.com">
  <metadata>
    <name>Sardaigne Corse</name>
    <desc><![CDATA[En octobre 2017 au départ de Portisco
6 membres d'équipage avec
Julien Bruno Frédéric Benjamin Sébastien 
embarqué sur Dufour 412]]></desc>
  </metadata>
  <trk>
    <name><![CDATA[Tracé actuel: 10 OCT 2017 16:15]]></name>
    <trkseg>
      <trkpt lat="41.33886" lon="9.25173">
        <ele>17.44</ele>
        <time>2017-10-10T15:15:10Z</time>
      </trkpt>
      <trkpt lat="41.33889" lon="9.25179">
        <ele>2.06</ele>
        <time>2017-10-10T15:15:41Z</time>
      </trkpt>
      <trkpt lat="41.33889" lon="9.25176">
        <ele>-0.82</ele>
        <time>2017-10-10T15:15:58Z</time>
      </trkpt>
      <trkpt lat="41.33898" lon="9.25168">
        <ele>-0.34</ele>
        <time>2017-10-10T15:16:27Z</time>
      </trkpt>
      <trkpt lat="41.33902" lon="9.25165">
        <ele>-0.34</ele>
        <time>2017-10-10T15:16:59Z</time>
      </trkpt>
      <trkpt lat="41.33903" lon="9.25166">
        <ele>-0.82</ele>
        <time>2017-10-10T15:17:22Z</time>
      </trkpt>
      <trkpt lat="41.33902" lon="9.25169">
        <ele>-0.82</ele>
        <time>2017-10-10T15:17:51Z</time>
      </trkpt>
      <trkpt lat="41.33892" lon="9.25173">
        <ele>-1.3</ele>
        <time>2017-10-10T15:18:20Z</time>
      </trkpt>
      <trkpt lat="41.33884" lon="9.25176">
        <ele>-0.82</ele>
        <time>2017-10-10T15:18:49Z</time>
      </trkpt>
      <trkpt lat="41.3389" lon="9.25177">
        <ele>0.14</ele>
        <time>2017-10-10T15:19:20Z</time>
      </trkpt>
      <trkpt lat="41.33898" lon="9.25175">
        <ele>0.14</ele>
        <time>2017-10-10T15:19:53Z</time>
      </trkpt>
      <trkpt lat="41.33898" lon="9.25173">
        <ele>0.14</ele>
        <time>2017-10-10T15:20:17Z</time>
      </trkpt>
      <trkpt lat="41.33891" lon="9.25175">
        <ele>-0.82</ele>
        <time>2017-10-10T15:20:45Z</time>
      </trkpt>
      <trkpt lat="41.33885" lon="9.25177">
        <ele>-0.34</ele>
        <time>2017-10-10T15:21:16Z</time>
      </trkpt>
      <trkpt lat="41.33894" lon="9.25171">
        <ele>-0.82</ele>
        <time>2017-10-10T15:21:44Z</time>
      </trkpt>
      <trkpt lat="41.33898" lon="9.25162">
        <ele>-0.82</ele>
        <time>2017-10-10T15:22:10Z</time>
      </trkpt>
      <trkpt lat="41.33887" lon="9.25164">
        <ele>-0.34</ele>
        <time>2017-10-10T15:22:38Z</time>
      </trkpt>
      <trkpt lat="41.33883" lon="9.25146">
        <ele>-0.34</ele>
        <time>2017-10-10T15:23:06Z</time>
      </trkpt>
      <trkpt lat="41.33883" lon="9.25141">
        <ele>-0.82</ele>
        <time>2017-10-10T15:23:30Z</time>
      </trkpt>
      <trkpt lat="41.3388" lon="9.25153">
        <ele>-1.3</ele>
        <time>2017-10-10T15:23:56Z</time>
      </trkpt>
      <trkpt lat="41.33883" lon="9.25155">
        <ele>-0.82</ele>
        <time>2017-10-10T15:24:20Z</time>
      </trkpt>
      <trkpt lat="41.33891" lon="9.25139">
        <ele>-0.34</ele>
        <time>2017-10-10T15:24:44Z</time>
      </trkpt>
      <trkpt lat="41.33894" lon="9.25136">
        <ele>0.62</ele>
        <time>2017-10-10T15:25:08Z</time>
      </trkpt>
      <trkpt lat="41.33895" lon="9.25145">
        <ele>1.1</ele>
        <time>2017-10-10T15:25:36Z</time>
      </trkpt>
      <trkpt lat="41.3388" lon="9.25169">
        <ele>-0.34</ele>
        <time>2017-10-10T15:26:01Z</time>
      </trkpt>
      <trkpt lat="41.33879" lon="9.25169">
        <ele>-0.34</ele>
        <time>2017-10-10T15:26:02Z</time>
      </trkpt>
      <trkpt lat="41.33854" lon="9.25184">
        <ele>-0.34</ele>
        <time>2017-10-10T15:26:27Z</time>
      </trkpt>
      <trkpt lat="41.33832" lon="9.25202">
        <ele>-0.82</ele>
        <time>2017-10-10T15:26:54Z</time>
      </trkpt>
      <trkpt lat="41.33813" lon="9.25208">
        <ele>-0.34</ele>
        <time>2017-10-10T15:27:16Z</time>
      </trkpt>
      <trkpt lat="41.33794" lon="9.25209">
        <ele>-1.3</ele>
        <time>2017-10-10T15:27:36Z</time>
      </trkpt>
      <trkpt lat="41.33772" lon="9.252">
        <ele>-1.3</ele>
        <time>2017-10-10T15:28:01Z</time>
      </trkpt>
      <trkpt lat="41.33771" lon="9.252">
        <ele>-1.3</ele>
        <time>2017-10-10T15:28:02Z</time>
      </trkpt>
      <trkpt lat="41.33746" lon="9.25185">
        <ele>-0.82</ele>
        <time>2017-10-10T15:28:30Z</time>
      </trkpt>
      <trkpt lat="41.33721" lon="9.25166">
        <ele>-0.82</ele>
        <time>2017-10-10T15:28:49Z</time>
      </trkpt>
      <trkpt lat="41.33687" lon="9.25143">
        <ele>-1.3</ele>
        <time>2017-10-10T15:29:11Z</time>
      </trkpt>
      <trkpt lat="41.33647" lon="9.25112">
        <ele>-0.82</ele>
        <time>2017-10-10T15:29:32Z</time>
      </trkpt>
      <trkpt lat="41.33604" lon="9.25086">
        <ele>-1.3</ele>
        <time>2017-10-10T15:29:51Z</time>
      </trkpt>
      <trkpt lat="41.33565" lon="9.25067">
        <ele>-0.82</ele>
        <time>2017-10-10T15:30:08Z</time>
      </trkpt>
      <trkpt lat="41.3352" lon="9.25038">
        <ele>-0.34</ele>
        <time>2017-10-10T15:30:28Z</time>
      </trkpt>
      <trkpt lat="41.33483" lon="9.25018">
        <ele>-0.34</ele>
        <time>2017-10-10T15:30:45Z</time>
      </trkpt>
      <trkpt lat="41.33449" lon="9.24996">
        <ele>-0.82</ele>
        <time>2017-10-10T15:31:01Z</time>
      </trkpt>
      <trkpt lat="41.33421" lon="9.24975">
        <ele>-0.34</ele>
        <time>2017-10-10T15:31:15Z</time>
      </trkpt>
      <trkpt lat="41.33392" lon="9.24954">
        <ele>-0.82</ele>
        <time>2017-10-10T15:31:29Z</time>
      </trkpt>
      <trkpt lat="41.33366" lon="9.24933">
        <ele>-0.34</ele>
        <time>2017-10-10T15:31:43Z</time>
      </trkpt>
      <trkpt lat="41.33345" lon="9.24917">
        <ele>-0.34</ele>
        <time>2017-10-10T15:31:55Z</time>
      </trkpt>
      <trkpt lat="41.33309" lon="9.24885">
        <ele>0.62</ele>
        <time>2017-10-10T15:32:14Z</time>
      </trkpt>
      <trkpt lat="41.33288" lon="9.24868">
        <ele>0.14</ele>
        <time>2017-10-10T15:32:26Z</time>
      </trkpt>
      <trkpt lat="41.33266" lon="9.24848">
        <ele>0.14</ele>
        <time>2017-10-10T15:32:40Z</time>
      </trkpt>
      <trkpt lat="41.33239" lon="9.24827">
        <ele>0.14</ele>
        <time>2017-10-10T15:32:55Z</time>
      </trkpt>
      <trkpt lat="41.33216" lon="9.24808">
        <ele>-0.34</ele>
        <time>2017-10-10T15:33:08Z</time>
      </trkpt>
      <trkpt lat="41.33191" lon="9.24786">
        <ele>0.14</ele>
        <time>2017-10-10T15:33:21Z</time>
      </trkpt>
      <trkpt lat="41.33171" lon="9.24766">
        <ele>-0.34</ele>
        <time>2017-10-10T15:33:33Z</time>
      </trkpt>
      <trkpt lat="41.33164" lon="9.24735">
        <ele>-0.34</ele>
        <time>2017-10-10T15:33:48Z</time>
      </trkpt>
      <trkpt lat="41.33159" lon="9.24708">
        <ele>0.14</ele>
        <time>2017-10-10T15:34:03Z</time>
      </trkpt>
      <trkpt lat="41.33143" lon="9.24671">
        <ele>0.62</ele>
        <time>2017-10-10T15:34:21Z</time>
      </trkpt>
      <trkpt lat="41.33127" lon="9.24642">
        <ele>0.62</ele>
        <time>2017-10-10T15:34:35Z</time>
      </trkpt>
      <trkpt lat="41.33117" lon="9.24595">
        <ele>0.62</ele>
        <time>2017-10-10T15:34:54Z</time>
      </trkpt>
      <trkpt lat="41.33112" lon="9.24554">
        <ele>0.62</ele>
        <time>2017-10-10T15:35:10Z</time>
      </trkpt>
      <trkpt lat="41.33091" lon="9.24529">
        <ele>0.62</ele>
        <time>2017-10-10T15:35:23Z</time>
      </trkpt>
      <trkpt lat="41.33064" lon="9.24504">
        <ele>0.62</ele>
        <time>2017-10-10T15:35:37Z</time>
      </trkpt>
      <trkpt lat="41.33035" lon="9.24486">
        <ele>1.1</ele>
        <time>2017-10-10T15:35:49Z</time>
      </trkpt>
      <trkpt lat="41.3299" lon="9.24473">
        <ele>0.62</ele>
        <time>2017-10-10T15:36:05Z</time>
      </trkpt>
      <trkpt lat="41.32964" lon="9.24469">
        <ele>0.14</ele>
        <time>2017-10-10T15:36:15Z</time>
      </trkpt>
      <trkpt lat="41.32935" lon="9.24462">
        <ele>-0.34</ele>
        <time>2017-10-10T15:36:26Z</time>
      </trkpt>
      <trkpt lat="41.32907" lon="9.24437">
        <ele>-0.82</ele>
        <time>2017-10-10T15:36:42Z</time>
      </trkpt>
      <trkpt lat="41.32879" lon="9.24421">
        <ele>-0.82</ele>
        <time>2017-10-10T15:36:57Z</time>
      </trkpt>
      <trkpt lat="41.32844" lon="9.24401">
        <ele>-0.82</ele>
        <time>2017-10-10T15:37:10Z</time>
      </trkpt>
      <trkpt lat="41.32812" lon="9.24382">
        <ele>-0.34</ele>
        <time>2017-10-10T15:37:22Z</time>
      </trkpt>
      <trkpt lat="41.32781" lon="9.24356">
        <ele>0.14</ele>
        <time>2017-10-10T15:37:35Z</time>
      </trkpt>
      <trkpt lat="41.32754" lon="9.24336">
        <ele>0.14</ele>
        <time>2017-10-10T15:37:47Z</time>
      </trkpt>
      <trkpt lat="41.32722" lon="9.24312">
        <ele>0.62</ele>
        <time>2017-10-10T15:38:01Z</time>
      </trkpt>
      <trkpt lat="41.32692" lon="9.24293">
        <ele>1.1</ele>
        <time>2017-10-10T15:38:13Z</time>
      </trkpt>
      <trkpt lat="41.32662" lon="9.24271">
        <ele>0.62</ele>
        <time>2017-10-10T15:38:26Z</time>
      </trkpt>
      <trkpt lat="41.3263" lon="9.24249">
        <ele>0.62</ele>
        <time>2017-10-10T15:38:40Z</time>
      </trkpt>
      <trkpt lat="41.32607" lon="9.24222">
        <ele>-0.34</ele>
        <time>2017-10-10T15:38:52Z</time>
      </trkpt>
      <trkpt lat="41.32583" lon="9.24195">
        <ele>-1.3</ele>
        <time>2017-10-10T15:39:05Z</time>
      </trkpt>
      <trkpt lat="41.32575" lon="9.24188">
        <ele>-0.82</ele>
        <time>2017-10-10T15:39:09Z</time>
      </trkpt>
      <trkpt lat="41.32544" lon="9.24161">
        <ele>-0.34</ele>
        <time>2017-10-10T15:39:23Z</time>
      </trkpt>
      <trkpt lat="41.32511" lon="9.24136">
        <ele>0.62</ele>
        <time>2017-10-10T15:39:37Z</time>
      </trkpt>
      <trkpt lat="41.32483" lon="9.24116">
        <ele>1.1</ele>
        <time>2017-10-10T15:39:49Z</time>
      </trkpt>
      <trkpt lat="41.32456" lon="9.24093">
        <ele>1.58</ele>
        <time>2017-10-10T15:40:01Z</time>
      </trkpt>
      <trkpt lat="41.32425" lon="9.24066">
        <ele>1.1</ele>
        <time>2017-10-10T15:40:14Z</time>
      </trkpt>
      <trkpt lat="41.32398" lon="9.2404">
        <ele>1.1</ele>
        <time>2017-10-10T15:40:26Z</time>
      </trkpt>
      <trkpt lat="41.32364" lon="9.24009">
        <ele>1.1</ele>
        <time>2017-10-10T15:40:41Z</time>
      </trkpt>
      <trkpt lat="41.32337" lon="9.23985">
        <ele>1.58</ele>
        <time>2017-10-10T15:40:53Z</time>
      </trkpt>
      <trkpt lat="41.3231" lon="9.23961">
        <ele>0.62</ele>
        <time>2017-10-10T15:41:06Z</time>
      </trkpt>
      <trkpt lat="41.32287" lon="9.2394">
        <ele>0.62</ele>
        <time>2017-10-10T15:41:17Z</time>
      </trkpt>
      <trkpt lat="41.32273" lon="9.23924">
        <ele>0.14</ele>
        <time>2017-10-10T15:41:26Z</time>
      </trkpt>
      <trkpt lat="41.32246" lon="9.23904">
        <ele>0.14</ele>
        <time>2017-10-10T15:41:40Z</time>
      </trkpt>
      <trkpt lat="41.32225" lon="9.23884">
        <ele>0.14</ele>
        <time>2017-10-10T15:41:53Z</time>
      </trkpt>
      <trkpt lat="41.32198" lon="9.23865">
        <ele>0.62</ele>
        <time>2017-10-10T15:42:07Z</time>
      </trkpt>
      <trkpt lat="41.3218" lon="9.23854">
        <ele>0.62</ele>
        <time>2017-10-10T15:42:16Z</time>
      </trkpt>
      <trkpt lat="41.32164" lon="9.23844">
        <ele>1.1</ele>
        <time>2017-10-10T15:42:25Z</time>
      </trkpt>
      <trkpt lat="41.32141" lon="9.23825">
        <ele>1.58</ele>
        <time>2017-10-10T15:42:38Z</time>
      </trkpt>
      <trkpt lat="41.32121" lon="9.23811">
        <ele>2.06</ele>
        <time>2017-10-10T15:42:49Z</time>
      </trkpt>
      <trkpt lat="41.321" lon="9.23796">
        <ele>2.06</ele>
        <time>2017-10-10T15:43:00Z</time>
      </trkpt>
      <trkpt lat="41.3208" lon="9.23773">
        <ele>1.58</ele>
        <time>2017-10-10T15:43:12Z</time>
      </trkpt>
      <trkpt lat="41.3206" lon="9.23757">
        <ele>-0.34</ele>
        <time>2017-10-10T15:43:22Z</time>
      </trkpt>
      <trkpt lat="41.32036" lon="9.23735">
        <ele>0.14</ele>
        <time>2017-10-10T15:43:34Z</time>
      </trkpt>
      <trkpt lat="41.32005" lon="9.23708">
        <ele>1.1</ele>
        <time>2017-10-10T15:43:48Z</time>
      </trkpt>
      <trkpt lat="41.31974" lon="9.2368">
        <ele>2.06</ele>
        <time>2017-10-10T15:44:01Z</time>
      </trkpt>
      <trkpt lat="41.31943" lon="9.23653">
        <ele>3.02</ele>
        <time>2017-10-10T15:44:14Z</time>
      </trkpt>
      <trkpt lat="41.31908" lon="9.23627">
        <ele>3.5</ele>
        <time>2017-10-10T15:44:28Z</time>
      </trkpt>
      <trkpt lat="41.31879" lon="9.23603">
        <ele>4.46</ele>
        <time>2017-10-10T15:44:41Z</time>
      </trkpt>
      <trkpt lat="41.31841" lon="9.23575">
        <ele>5.42</ele>
        <time>2017-10-10T15:44:58Z</time>
      </trkpt>
      <trkpt lat="41.31812" lon="9.23558">
        <ele>5.42</ele>
        <time>2017-10-10T15:45:12Z</time>
      </trkpt>
      <trkpt lat="41.3179" lon="9.23539">
        <ele>4.94</ele>
        <time>2017-10-10T15:45:25Z</time>
      </trkpt>
      <trkpt lat="41.31765" lon="9.23524">
        <ele>2.54</ele>
        <time>2017-10-10T15:45:38Z</time>
      </trkpt>
      <trkpt lat="41.31732" lon="9.23502">
        <ele>3.5</ele>
        <time>2017-10-10T15:45:54Z</time>
      </trkpt>
      <trkpt lat="41.31695" lon="9.23487">
        <ele>3.5</ele>
        <time>2017-10-10T15:46:08Z</time>
      </trkpt>
      <trkpt lat="41.31673" lon="9.23469">
        <ele>2.06</ele>
        <time>2017-10-10T15:46:20Z</time>
      </trkpt>
      <trkpt lat="41.3167" lon="9.23464">
        <ele>2.06</ele>
        <time>2017-10-10T15:46:24Z</time>
      </trkpt>
      <trkpt lat="41.31672" lon="9.2346">
        <ele>2.06</ele>
        <time>2017-10-10T15:46:27Z</time>
      </trkpt>
      <trkpt lat="41.31678" lon="9.23457">
        <ele>2.06</ele>
        <time>2017-10-10T15:46:31Z</time>
      </trkpt>
      <trkpt lat="41.31684" lon="9.23454">
        <ele>2.06</ele>
        <time>2017-10-10T15:46:34Z</time>
      </trkpt>
      <trkpt lat="41.31692" lon="9.23442">
        <ele>2.06</ele>
        <time>2017-10-10T15:46:41Z</time>
      </trkpt>
      <trkpt lat="41.31699" lon="9.23436">
        <ele>2.06</ele>
        <time>2017-10-10T15:46:45Z</time>
      </trkpt>
      <trkpt lat="41.31727" lon="9.23398">
        <ele>2.54</ele>
        <time>2017-10-10T15:47:00Z</time>
      </trkpt>
      <trkpt lat="41.31751" lon="9.23358">
        <ele>2.06</ele>
        <time>2017-10-10T15:47:14Z</time>
      </trkpt>
      <trkpt lat="41.31776" lon="9.23319">
        <ele>1.1</ele>
        <time>2017-10-10T15:47:28Z</time>
      </trkpt>
      <trkpt lat="41.31806" lon="9.23277">
        <ele>0.14</ele>
        <time>2017-10-10T15:47:43Z</time>
      </trkpt>
      <trkpt lat="41.31835" lon="9.23236">
        <ele>0.14</ele>
        <time>2017-10-10T15:47:57Z</time>
      </trkpt>
      <trkpt lat="41.31866" lon="9.23196">
        <ele>0.62</ele>
        <time>2017-10-10T15:48:11Z</time>
      </trkpt>
      <trkpt lat="41.31896" lon="9.23158">
        <ele>1.1</ele>
        <time>2017-10-10T15:48:24Z</time>
      </trkpt>
      <trkpt lat="41.3192" lon="9.23126">
        <ele>0.14</ele>
        <time>2017-10-10T15:48:35Z</time>
      </trkpt>
      <trkpt lat="41.31945" lon="9.2308">
        <ele>0.62</ele>
        <time>2017-10-10T15:48:49Z</time>
      </trkpt>
      <trkpt lat="41.31978" lon="9.23036">
        <ele>0.14</ele>
        <time>2017-10-10T15:49:03Z</time>
      </trkpt>
      <trkpt lat="41.32011" lon="9.2299">
        <ele>0.62</ele>
        <time>2017-10-10T15:49:17Z</time>
      </trkpt>
      <trkpt lat="41.32039" lon="9.22946">
        <ele>1.58</ele>
        <time>2017-10-10T15:49:30Z</time>
      </trkpt>
      <trkpt lat="41.3207" lon="9.22904">
        <ele>1.1</ele>
        <time>2017-10-10T15:49:43Z</time>
      </trkpt>
      <trkpt lat="41.32109" lon="9.22852">
        <ele>1.1</ele>
        <time>2017-10-10T15:49:59Z</time>
      </trkpt>
      <trkpt lat="41.32138" lon="9.22819">
        <ele>1.1</ele>
        <time>2017-10-10T15:50:10Z</time>
      </trkpt>
      <trkpt lat="41.32172" lon="9.22774">
        <ele>1.1</ele>
        <time>2017-10-10T15:50:24Z</time>
      </trkpt>
      <trkpt lat="41.32206" lon="9.22725">
        <ele>0.62</ele>
        <time>2017-10-10T15:50:39Z</time>
      </trkpt>
      <trkpt lat="41.3224" lon="9.22692">
        <ele>1.58</ele>
        <time>2017-10-10T15:50:51Z</time>
      </trkpt>
      <trkpt lat="41.32268" lon="9.22657">
        <ele>1.1</ele>
        <time>2017-10-10T15:51:02Z</time>
      </trkpt>
      <trkpt lat="41.32292" lon="9.22624">
        <ele>1.1</ele>
        <time>2017-10-10T15:51:12Z</time>
      </trkpt>
      <trkpt lat="41.32322" lon="9.22589">
        <ele>1.1</ele>
        <time>2017-10-10T15:51:24Z</time>
      </trkpt>
      <trkpt lat="41.32351" lon="9.22548">
        <ele>0.62</ele>
        <time>2017-10-10T15:51:37Z</time>
      </trkpt>
      <trkpt lat="41.32381" lon="9.22506">
        <ele>0.62</ele>
        <time>2017-10-10T15:51:50Z</time>
      </trkpt>
      <trkpt lat="41.32413" lon="9.22467">
        <ele>0.62</ele>
        <time>2017-10-10T15:52:03Z</time>
      </trkpt>
      <trkpt lat="41.32449" lon="9.22414">
        <ele>0.62</ele>
        <time>2017-10-10T15:52:19Z</time>
      </trkpt>
      <trkpt lat="41.32483" lon="9.22367">
        <ele>0.62</ele>
        <time>2017-10-10T15:52:33Z</time>
      </trkpt>
      <trkpt lat="41.3251" lon="9.22324">
        <ele>0.14</ele>
        <time>2017-10-10T15:52:46Z</time>
      </trkpt>
      <trkpt lat="41.32544" lon="9.22279">
        <ele>0.14</ele>
        <time>2017-10-10T15:53:00Z</time>
      </trkpt>
      <trkpt lat="41.32576" lon="9.22242">
        <ele>-0.34</ele>
        <time>2017-10-10T15:53:12Z</time>
      </trkpt>
      <trkpt lat="41.326" lon="9.22212">
        <ele>0.14</ele>
        <time>2017-10-10T15:53:22Z</time>
      </trkpt>
      <trkpt lat="41.32637" lon="9.22165">
        <ele>0.14</ele>
        <time>2017-10-10T15:53:37Z</time>
      </trkpt>
      <trkpt lat="41.32667" lon="9.22127">
        <ele>0.14</ele>
        <time>2017-10-10T15:53:49Z</time>
      </trkpt>
      <trkpt lat="41.32702" lon="9.22082">
        <ele>-0.34</ele>
        <time>2017-10-10T15:54:03Z</time>
      </trkpt>
      <trkpt lat="41.32735" lon="9.22035">
        <ele>0.14</ele>
        <time>2017-10-10T15:54:17Z</time>
      </trkpt>
      <trkpt lat="41.32763" lon="9.22008">
        <ele>1.1</ele>
        <time>2017-10-10T15:54:27Z</time>
      </trkpt>
      <trkpt lat="41.32792" lon="9.21968">
        <ele>0.62</ele>
        <time>2017-10-10T15:54:39Z</time>
      </trkpt>
      <trkpt lat="41.32822" lon="9.21925">
        <ele>-0.34</ele>
        <time>2017-10-10T15:54:52Z</time>
      </trkpt>
      <trkpt lat="41.32858" lon="9.21879">
        <ele>-0.34</ele>
        <time>2017-10-10T15:55:06Z</time>
      </trkpt>
      <trkpt lat="41.3289" lon="9.21846">
        <ele>-0.34</ele>
        <time>2017-10-10T15:55:18Z</time>
      </trkpt>
      <trkpt lat="41.32923" lon="9.21808">
        <ele>0.14</ele>
        <time>2017-10-10T15:55:31Z</time>
      </trkpt>
      <trkpt lat="41.3295" lon="9.21775">
        <ele>0.14</ele>
        <time>2017-10-10T15:55:42Z</time>
      </trkpt>
      <trkpt lat="41.32984" lon="9.21739">
        <ele>0.62</ele>
        <time>2017-10-10T15:55:55Z</time>
      </trkpt>
      <trkpt lat="41.33017" lon="9.217">
        <ele>0.62</ele>
        <time>2017-10-10T15:56:08Z</time>
      </trkpt>
      <trkpt lat="41.3305" lon="9.21656">
        <ele>0.14</ele>
        <time>2017-10-10T15:56:22Z</time>
      </trkpt>
      <trkpt lat="41.3308" lon="9.21617">
        <ele>-0.34</ele>
        <time>2017-10-10T15:56:35Z</time>
      </trkpt>
      <trkpt lat="41.33113" lon="9.21576">
        <ele>-0.34</ele>
        <time>2017-10-10T15:56:49Z</time>
      </trkpt>
      <trkpt lat="41.33151" lon="9.21525">
        <ele>-0.34</ele>
        <time>2017-10-10T15:57:05Z</time>
      </trkpt>
      <trkpt lat="41.33184" lon="9.21484">
        <ele>-0.82</ele>
        <time>2017-10-10T15:57:18Z</time>
      </trkpt>
      <trkpt lat="41.33219" lon="9.21436">
        <ele>-0.82</ele>
        <time>2017-10-10T15:57:33Z</time>
      </trkpt>
      <trkpt lat="41.3324" lon="9.21407">
        <ele>-1.79</ele>
        <time>2017-10-10T15:57:42Z</time>
      </trkpt>
      <trkpt lat="41.33273" lon="9.21362">
        <ele>-2.27</ele>
        <time>2017-10-10T15:57:56Z</time>
      </trkpt>
      <trkpt lat="41.33309" lon="9.2132">
        <ele>-3.23</ele>
        <time>2017-10-10T15:58:10Z</time>
      </trkpt>
      <trkpt lat="41.33339" lon="9.21284">
        <ele>-3.71</ele>
        <time>2017-10-10T15:58:22Z</time>
      </trkpt>
      <trkpt lat="41.33369" lon="9.21242">
        <ele>-3.71</ele>
        <time>2017-10-10T15:58:35Z</time>
      </trkpt>
      <trkpt lat="41.33401" lon="9.21202">
        <ele>-2.27</ele>
        <time>2017-10-10T15:58:48Z</time>
      </trkpt>
      <trkpt lat="41.33433" lon="9.21164">
        <ele>-2.27</ele>
        <time>2017-10-10T15:59:01Z</time>
      </trkpt>
      <trkpt lat="41.33469" lon="9.21125">
        <ele>-2.75</ele>
        <time>2017-10-10T15:59:15Z</time>
      </trkpt>
      <trkpt lat="41.33496" lon="9.2109">
        <ele>-2.75</ele>
        <time>2017-10-10T15:59:27Z</time>
      </trkpt>
      <trkpt lat="41.33518" lon="9.2106">
        <ele>-2.75</ele>
        <time>2017-10-10T15:59:37Z</time>
      </trkpt>
      <trkpt lat="41.33534" lon="9.21036">
        <ele>-2.27</ele>
        <time>2017-10-10T15:59:45Z</time>
      </trkpt>
      <trkpt lat="41.33561" lon="9.21001">
        <ele>-2.27</ele>
        <time>2017-10-10T15:59:57Z</time>
      </trkpt>
      <trkpt lat="41.33589" lon="9.20968">
        <ele>-2.27</ele>
        <time>2017-10-10T16:00:08Z</time>
      </trkpt>
      <trkpt lat="41.33618" lon="9.20931">
        <ele>-1.79</ele>
        <time>2017-10-10T16:00:20Z</time>
      </trkpt>
      <trkpt lat="41.33644" lon="9.20902">
        <ele>-1.3</ele>
        <time>2017-10-10T16:00:30Z</time>
      </trkpt>
      <trkpt lat="41.33671" lon="9.20871">
        <ele>-0.82</ele>
        <time>2017-10-10T16:00:41Z</time>
      </trkpt>
      <trkpt lat="41.337" lon="9.20836">
        <ele>-1.3</ele>
        <time>2017-10-10T16:00:53Z</time>
      </trkpt>
      <trkpt lat="41.33729" lon="9.20794">
        <ele>-2.27</ele>
        <time>2017-10-10T16:01:06Z</time>
      </trkpt>
      <trkpt lat="41.33765" lon="9.20755">
        <ele>-1.79</ele>
        <time>2017-10-10T16:01:20Z</time>
      </trkpt>
      <trkpt lat="41.33793" lon="9.2072">
        <ele>-1.79</ele>
        <time>2017-10-10T16:01:32Z</time>
      </trkpt>
      <trkpt lat="41.33824" lon="9.20687">
        <ele>-1.3</ele>
        <time>2017-10-10T16:01:44Z</time>
      </trkpt>
      <trkpt lat="41.33857" lon="9.20646">
        <ele>-1.3</ele>
        <time>2017-10-10T16:01:58Z</time>
      </trkpt>
      <trkpt lat="41.33887" lon="9.20612">
        <ele>-0.82</ele>
        <time>2017-10-10T16:02:10Z</time>
      </trkpt>
      <trkpt lat="41.33914" lon="9.20583">
        <ele>-1.3</ele>
        <time>2017-10-10T16:02:21Z</time>
      </trkpt>
      <trkpt lat="41.3394" lon="9.20551">
        <ele>-0.82</ele>
        <time>2017-10-10T16:02:32Z</time>
      </trkpt>
      <trkpt lat="41.33971" lon="9.20512">
        <ele>-1.3</ele>
        <time>2017-10-10T16:02:45Z</time>
      </trkpt>
      <trkpt lat="41.33996" lon="9.20479">
        <ele>-1.3</ele>
        <time>2017-10-10T16:02:56Z</time>
      </trkpt>
      <trkpt lat="41.34022" lon="9.20453">
        <ele>-1.3</ele>
        <time>2017-10-10T16:03:06Z</time>
      </trkpt>
      <trkpt lat="41.34051" lon="9.20418">
        <ele>-1.3</ele>
        <time>2017-10-10T16:03:18Z</time>
      </trkpt>
      <trkpt lat="41.34078" lon="9.20377">
        <ele>-0.82</ele>
        <time>2017-10-10T16:03:31Z</time>
      </trkpt>
      <trkpt lat="41.34105" lon="9.20343">
        <ele>-0.34</ele>
        <time>2017-10-10T16:03:42Z</time>
      </trkpt>
      <trkpt lat="41.3414" lon="9.203">
        <ele>-0.34</ele>
        <time>2017-10-10T16:03:56Z</time>
      </trkpt>
      <trkpt lat="41.34168" lon="9.20268">
        <ele>-0.34</ele>
        <time>2017-10-10T16:04:07Z</time>
      </trkpt>
      <trkpt lat="41.34192" lon="9.20237">
        <ele>0.62</ele>
        <time>2017-10-10T16:04:17Z</time>
      </trkpt>
      <trkpt lat="41.34225" lon="9.20199">
        <ele>0.62</ele>
        <time>2017-10-10T16:04:30Z</time>
      </trkpt>
      <trkpt lat="41.3426" lon="9.20158">
        <ele>0.62</ele>
        <time>2017-10-10T16:04:44Z</time>
      </trkpt>
      <trkpt lat="41.34293" lon="9.20122">
        <ele>0.14</ele>
        <time>2017-10-10T16:04:57Z</time>
      </trkpt>
      <trkpt lat="41.34326" lon="9.2009">
        <ele>-0.34</ele>
        <time>2017-10-10T16:05:09Z</time>
      </trkpt>
      <trkpt lat="41.34352" lon="9.20064">
        <ele>0.14</ele>
        <time>2017-10-10T16:05:19Z</time>
      </trkpt>
      <trkpt lat="41.34382" lon="9.20028">
        <ele>0.62</ele>
        <time>2017-10-10T16:05:31Z</time>
      </trkpt>
      <trkpt lat="41.34411" lon="9.19992">
        <ele>0.62</ele>
        <time>2017-10-10T16:05:43Z</time>
      </trkpt>
      <trkpt lat="41.34443" lon="9.19955">
        <ele>0.62</ele>
        <time>2017-10-10T16:05:56Z</time>
      </trkpt>
      <trkpt lat="41.34474" lon="9.19918">
        <ele>-0.34</ele>
        <time>2017-10-10T16:06:08Z</time>
      </trkpt>
      <trkpt lat="41.34506" lon="9.19879">
        <ele>0.14</ele>
        <time>2017-10-10T16:06:21Z</time>
      </trkpt>
      <trkpt lat="41.34534" lon="9.19847">
        <ele>-0.34</ele>
        <time>2017-10-10T16:06:32Z</time>
      </trkpt>
      <trkpt lat="41.34567" lon="9.1981">
        <ele>0.62</ele>
        <time>2017-10-10T16:06:45Z</time>
      </trkpt>
      <trkpt lat="41.346" lon="9.19775">
        <ele>1.1</ele>
        <time>2017-10-10T16:06:58Z</time>
      </trkpt>
      <trkpt lat="41.34632" lon="9.19742">
        <ele>2.06</ele>
        <time>2017-10-10T16:07:11Z</time>
      </trkpt>
      <trkpt lat="41.3466" lon="9.1971">
        <ele>1.1</ele>
        <time>2017-10-10T16:07:23Z</time>
      </trkpt>
      <trkpt lat="41.34686" lon="9.1968">
        <ele>2.54</ele>
        <time>2017-10-10T16:07:34Z</time>
      </trkpt>
      <trkpt lat="41.34715" lon="9.19648">
        <ele>1.58</ele>
        <time>2017-10-10T16:07:46Z</time>
      </trkpt>
      <trkpt lat="41.34724" lon="9.19637">
        <ele>2.06</ele>
        <time>2017-10-10T16:07:50Z</time>
      </trkpt>
      <trkpt lat="41.34758" lon="9.19599">
        <ele>1.1</ele>
        <time>2017-10-10T16:08:04Z</time>
      </trkpt>
      <trkpt lat="41.34793" lon="9.19559">
        <ele>1.1</ele>
        <time>2017-10-10T16:08:19Z</time>
      </trkpt>
      <trkpt lat="41.34814" lon="9.19536">
        <ele>1.58</ele>
        <time>2017-10-10T16:08:28Z</time>
      </trkpt>
      <trkpt lat="41.34842" lon="9.19504">
        <ele>2.06</ele>
        <time>2017-10-10T16:08:40Z</time>
      </trkpt>
      <trkpt lat="41.34869" lon="9.19475">
        <ele>1.58</ele>
        <time>2017-10-10T16:08:51Z</time>
      </trkpt>
      <trkpt lat="41.34903" lon="9.19436">
        <ele>1.1</ele>
        <time>2017-10-10T16:09:05Z</time>
      </trkpt>
      <trkpt lat="41.34932" lon="9.19407">
        <ele>0.62</ele>
        <time>2017-10-10T16:09:16Z</time>
      </trkpt>
      <trkpt lat="41.34966" lon="9.19364">
        <ele>1.58</ele>
        <time>2017-10-10T16:09:30Z</time>
      </trkpt>
      <trkpt lat="41.35" lon="9.19323">
        <ele>1.58</ele>
        <time>2017-10-10T16:09:44Z</time>
      </trkpt>
      <trkpt lat="41.35028" lon="9.19292">
        <ele>1.58</ele>
        <time>2017-10-10T16:09:55Z</time>
      </trkpt>
      <trkpt lat="41.35055" lon="9.19259">
        <ele>1.58</ele>
        <time>2017-10-10T16:10:06Z</time>
      </trkpt>
      <trkpt lat="41.35091" lon="9.19223">
        <ele>1.1</ele>
        <time>2017-10-10T16:10:20Z</time>
      </trkpt>
      <trkpt lat="41.3512" lon="9.1919">
        <ele>1.1</ele>
        <time>2017-10-10T16:10:32Z</time>
      </trkpt>
      <trkpt lat="41.3515" lon="9.1916">
        <ele>0.14</ele>
        <time>2017-10-10T16:10:44Z</time>
      </trkpt>
      <trkpt lat="41.35181" lon="9.19127">
        <ele>0.62</ele>
        <time>2017-10-10T16:10:57Z</time>
      </trkpt>
      <trkpt lat="41.35211" lon="9.19097">
        <ele>1.58</ele>
        <time>2017-10-10T16:11:09Z</time>
      </trkpt>
      <trkpt lat="41.35239" lon="9.19065">
        <ele>1.58</ele>
        <time>2017-10-10T16:11:21Z</time>
      </trkpt>
      <trkpt lat="41.35268" lon="9.19032">
        <ele>2.54</ele>
        <time>2017-10-10T16:11:34Z</time>
      </trkpt>
      <trkpt lat="41.35297" lon="9.19">
        <ele>3.5</ele>
        <time>2017-10-10T16:11:47Z</time>
      </trkpt>
      <trkpt lat="41.35325" lon="9.18971">
        <ele>3.5</ele>
        <time>2017-10-10T16:12:00Z</time>
      </trkpt>
      <trkpt lat="41.35358" lon="9.18936">
        <ele>3.98</ele>
        <time>2017-10-10T16:12:15Z</time>
      </trkpt>
      <trkpt lat="41.35387" lon="9.18908">
        <ele>3.5</ele>
        <time>2017-10-10T16:12:28Z</time>
      </trkpt>
      <trkpt lat="41.35421" lon="9.18875">
        <ele>3.02</ele>
        <time>2017-10-10T16:12:42Z</time>
      </trkpt>
      <trkpt lat="41.35452" lon="9.18843">
        <ele>2.54</ele>
        <time>2017-10-10T16:12:55Z</time>
      </trkpt>
      <trkpt lat="41.35479" lon="9.18814">
        <ele>2.54</ele>
        <time>2017-10-10T16:13:07Z</time>
      </trkpt>
      <trkpt lat="41.35511" lon="9.18779">
        <ele>2.54</ele>
        <time>2017-10-10T16:13:21Z</time>
      </trkpt>
      <trkpt lat="41.35535" lon="9.18754">
        <ele>2.54</ele>
        <time>2017-10-10T16:13:31Z</time>
      </trkpt>
      <trkpt lat="41.35563" lon="9.18723">
        <ele>2.54</ele>
        <time>2017-10-10T16:13:43Z</time>
      </trkpt>
      <trkpt lat="41.35598" lon="9.18685">
        <ele>3.02</ele>
        <time>2017-10-10T16:13:58Z</time>
      </trkpt>
      <trkpt lat="41.35622" lon="9.18657">
        <ele>3.02</ele>
        <time>2017-10-10T16:14:09Z</time>
      </trkpt>
      <trkpt lat="41.3565" lon="9.18627">
        <ele>3.02</ele>
        <time>2017-10-10T16:14:21Z</time>
      </trkpt>
      <trkpt lat="41.35681" lon="9.18589">
        <ele>3.98</ele>
        <time>2017-10-10T16:14:35Z</time>
      </trkpt>
      <trkpt lat="41.35721" lon="9.18542">
        <ele>3.02</ele>
        <time>2017-10-10T16:14:52Z</time>
      </trkpt>
      <trkpt lat="41.35753" lon="9.18502">
        <ele>3.02</ele>
        <time>2017-10-10T16:15:06Z</time>
      </trkpt>
      <trkpt lat="41.35788" lon="9.18462">
        <ele>2.54</ele>
        <time>2017-10-10T16:15:21Z</time>
      </trkpt>
      <trkpt lat="41.35814" lon="9.18433">
        <ele>3.02</ele>
        <time>2017-10-10T16:15:32Z</time>
      </trkpt>
      <trkpt lat="41.35847" lon="9.18397">
        <ele>2.54</ele>
        <time>2017-10-10T16:15:46Z</time>
      </trkpt>
      <trkpt lat="41.35878" lon="9.18366">
        <ele>3.5</ele>
        <time>2017-10-10T16:15:59Z</time>
      </trkpt>
      <trkpt lat="41.35905" lon="9.18341">
        <ele>2.54</ele>
        <time>2017-10-10T16:16:10Z</time>
      </trkpt>
      <trkpt lat="41.35933" lon="9.18309">
        <ele>2.06</ele>
        <time>2017-10-10T16:16:23Z</time>
      </trkpt>
      <trkpt lat="41.35963" lon="9.18277">
        <ele>3.02</ele>
        <time>2017-10-10T16:16:36Z</time>
      </trkpt>
      <trkpt lat="41.35992" lon="9.18249">
        <ele>3.02</ele>
        <time>2017-10-10T16:16:48Z</time>
      </trkpt>
      <trkpt lat="41.36019" lon="9.18221">
        <ele>3.02</ele>
        <time>2017-10-10T16:17:00Z</time>
      </trkpt>
      <trkpt lat="41.36046" lon="9.18194">
        <ele>3.02</ele>
        <time>2017-10-10T16:17:12Z</time>
      </trkpt>
      <trkpt lat="41.36079" lon="9.18159">
        <ele>3.02</ele>
        <time>2017-10-10T16:17:27Z</time>
      </trkpt>
      <trkpt lat="41.36105" lon="9.18127">
        <ele>3.02</ele>
        <time>2017-10-10T16:17:41Z</time>
      </trkpt>
      <trkpt lat="41.36127" lon="9.18101">
        <ele>2.54</ele>
        <time>2017-10-10T16:17:53Z</time>
      </trkpt>
      <trkpt lat="41.36155" lon="9.18068">
        <ele>2.06</ele>
        <time>2017-10-10T16:18:09Z</time>
      </trkpt>
      <trkpt lat="41.36178" lon="9.1804">
        <ele>3.02</ele>
        <time>2017-10-10T16:18:22Z</time>
      </trkpt>
      <trkpt lat="41.36203" lon="9.1801">
        <ele>3.5</ele>
        <time>2017-10-10T16:18:35Z</time>
      </trkpt>
      <trkpt lat="41.36229" lon="9.17976">
        <ele>3.5</ele>
        <time>2017-10-10T16:18:48Z</time>
      </trkpt>
      <trkpt lat="41.36259" lon="9.17935">
        <ele>3.02</ele>
        <time>2017-10-10T16:19:03Z</time>
      </trkpt>
      <trkpt lat="41.36282" lon="9.17905">
        <ele>2.54</ele>
        <time>2017-10-10T16:19:14Z</time>
      </trkpt>
      <trkpt lat="41.36304" lon="9.17876">
        <ele>2.06</ele>
        <time>2017-10-10T16:19:25Z</time>
      </trkpt>
      <trkpt lat="41.36336" lon="9.17832">
        <ele>2.06</ele>
        <time>2017-10-10T16:19:41Z</time>
      </trkpt>
      <trkpt lat="41.36363" lon="9.17797">
        <ele>2.54</ele>
        <time>2017-10-10T16:19:55Z</time>
      </trkpt>
      <trkpt lat="41.36389" lon="9.17764">
        <ele>3.02</ele>
        <time>2017-10-10T16:20:09Z</time>
      </trkpt>
      <trkpt lat="41.36414" lon="9.17735">
        <ele>2.06</ele>
        <time>2017-10-10T16:20:23Z</time>
      </trkpt>
      <trkpt lat="41.36436" lon="9.17707">
        <ele>2.54</ele>
        <time>2017-10-10T16:20:36Z</time>
      </trkpt>
      <trkpt lat="41.36459" lon="9.17676">
        <ele>2.54</ele>
        <time>2017-10-10T16:20:50Z</time>
      </trkpt>
      <trkpt lat="41.36479" lon="9.17652">
        <ele>2.54</ele>
        <time>2017-10-10T16:21:02Z</time>
      </trkpt>
      <trkpt lat="41.36499" lon="9.17628">
        <ele>2.54</ele>
        <time>2017-10-10T16:21:14Z</time>
      </trkpt>
      <trkpt lat="41.3652" lon="9.17604">
        <ele>2.54</ele>
        <time>2017-10-10T16:21:28Z</time>
      </trkpt>
      <trkpt lat="41.3654" lon="9.17579">
        <ele>2.54</ele>
        <time>2017-10-10T16:21:42Z</time>
      </trkpt>
      <trkpt lat="41.36551" lon="9.17565">
        <ele>3.02</ele>
        <time>2017-10-10T16:21:49Z</time>
      </trkpt>
      <trkpt lat="41.36554" lon="9.1756">
        <ele>3.02</ele>
        <time>2017-10-10T16:21:51Z</time>
      </trkpt>
      <trkpt lat="41.36582" lon="9.17525">
        <ele>2.06</ele>
        <time>2017-10-10T16:22:07Z</time>
      </trkpt>
      <trkpt lat="41.36605" lon="9.17496">
        <ele>2.54</ele>
        <time>2017-10-10T16:22:19Z</time>
      </trkpt>
      <trkpt lat="41.36619" lon="9.17475">
        <ele>3.02</ele>
        <time>2017-10-10T16:22:27Z</time>
      </trkpt>
      <trkpt lat="41.36643" lon="9.17444">
        <ele>2.54</ele>
        <time>2017-10-10T16:22:40Z</time>
      </trkpt>
      <trkpt lat="41.36665" lon="9.17415">
        <ele>2.54</ele>
        <time>2017-10-10T16:22:52Z</time>
      </trkpt>
      <trkpt lat="41.36693" lon="9.17378">
        <ele>2.54</ele>
        <time>2017-10-10T16:23:06Z</time>
      </trkpt>
      <trkpt lat="41.36719" lon="9.17342">
        <ele>3.02</ele>
        <time>2017-10-10T16:23:20Z</time>
      </trkpt>
      <trkpt lat="41.36744" lon="9.17308">
        <ele>2.06</ele>
        <time>2017-10-10T16:23:34Z</time>
      </trkpt>
      <trkpt lat="41.36767" lon="9.17278">
        <ele>2.06</ele>
        <time>2017-10-10T16:23:48Z</time>
      </trkpt>
      <trkpt lat="41.36787" lon="9.17256">
        <ele>2.54</ele>
        <time>2017-10-10T16:24:01Z</time>
      </trkpt>
      <trkpt lat="41.36806" lon="9.17232">
        <ele>2.06</ele>
        <time>2017-10-10T16:24:13Z</time>
      </trkpt>
      <trkpt lat="41.36827" lon="9.17206">
        <ele>2.06</ele>
        <time>2017-10-10T16:24:25Z</time>
      </trkpt>
      <trkpt lat="41.36848" lon="9.1718">
        <ele>2.06</ele>
        <time>2017-10-10T16:24:36Z</time>
      </trkpt>
      <trkpt lat="41.36872" lon="9.17149">
        <ele>2.06</ele>
        <time>2017-10-10T16:24:49Z</time>
      </trkpt>
      <trkpt lat="41.369" lon="9.17113">
        <ele>2.06</ele>
        <time>2017-10-10T16:25:04Z</time>
      </trkpt>
      <trkpt lat="41.36924" lon="9.17082">
        <ele>2.54</ele>
        <time>2017-10-10T16:25:18Z</time>
      </trkpt>
      <trkpt lat="41.36946" lon="9.17055">
        <ele>3.02</ele>
        <time>2017-10-10T16:25:32Z</time>
      </trkpt>
      <trkpt lat="41.36962" lon="9.17037">
        <ele>3.5</ele>
        <time>2017-10-10T16:25:43Z</time>
      </trkpt>
      <trkpt lat="41.36983" lon="9.17013">
        <ele>3.5</ele>
        <time>2017-10-10T16:25:57Z</time>
      </trkpt>
      <trkpt lat="41.37004" lon="9.16987">
        <ele>3.5</ele>
        <time>2017-10-10T16:26:11Z</time>
      </trkpt>
      <trkpt lat="41.37027" lon="9.16959">
        <ele>3.02</ele>
        <time>2017-10-10T16:26:26Z</time>
      </trkpt>
      <trkpt lat="41.37046" lon="9.16935">
        <ele>3.02</ele>
        <time>2017-10-10T16:26:38Z</time>
      </trkpt>
      <trkpt lat="41.37064" lon="9.16914">
        <ele>3.98</ele>
        <time>2017-10-10T16:26:49Z</time>
      </trkpt>
      <trkpt lat="41.37089" lon="9.16883">
        <ele>3.5</ele>
        <time>2017-10-10T16:27:03Z</time>
      </trkpt>
      <trkpt lat="41.37114" lon="9.16849">
        <ele>3.98</ele>
        <time>2017-10-10T16:27:17Z</time>
      </trkpt>
      <trkpt lat="41.37137" lon="9.1682">
        <ele>3.02</ele>
        <time>2017-10-10T16:27:29Z</time>
      </trkpt>
      <trkpt lat="41.37159" lon="9.16795">
        <ele>3.02</ele>
        <time>2017-10-10T16:27:41Z</time>
      </trkpt>
      <trkpt lat="41.37182" lon="9.16766">
        <ele>2.54</ele>
        <time>2017-10-10T16:27:54Z</time>
      </trkpt>
      <trkpt lat="41.37207" lon="9.16734">
        <ele>3.02</ele>
        <time>2017-10-10T16:28:08Z</time>
      </trkpt>
      <trkpt lat="41.37238" lon="9.16693">
        <ele>2.06</ele>
        <time>2017-10-10T16:28:25Z</time>
      </trkpt>
      <trkpt lat="41.37263" lon="9.16662">
        <ele>2.06</ele>
        <time>2017-10-10T16:28:39Z</time>
      </trkpt>
      <trkpt lat="41.37284" lon="9.16634">
        <ele>1.58</ele>
        <time>2017-10-10T16:28:52Z</time>
      </trkpt>
      <trkpt lat="41.37304" lon="9.1661">
        <ele>2.06</ele>
        <time>2017-10-10T16:29:05Z</time>
      </trkpt>
      <trkpt lat="41.37327" lon="9.16583">
        <ele>2.54</ele>
        <time>2017-10-10T16:29:19Z</time>
      </trkpt>
      <trkpt lat="41.37351" lon="9.16548">
        <ele>2.06</ele>
        <time>2017-10-10T16:29:34Z</time>
      </trkpt>
      <trkpt lat="41.37373" lon="9.16518">
        <ele>1.58</ele>
        <time>2017-10-10T16:29:46Z</time>
      </trkpt>
      <trkpt lat="41.37392" lon="9.16489">
        <ele>1.58</ele>
        <time>2017-10-10T16:29:57Z</time>
      </trkpt>
      <trkpt lat="41.37413" lon="9.1646">
        <ele>1.58</ele>
        <time>2017-10-10T16:30:10Z</time>
      </trkpt>
      <trkpt lat="41.37435" lon="9.16428">
        <ele>1.58</ele>
        <time>2017-10-10T16:30:24Z</time>
      </trkpt>
      <trkpt lat="41.37457" lon="9.16395">
        <ele>1.58</ele>
        <time>2017-10-10T16:30:38Z</time>
      </trkpt>
      <trkpt lat="41.37476" lon="9.16367">
        <ele>2.54</ele>
        <time>2017-10-10T16:30:50Z</time>
      </trkpt>
      <trkpt lat="41.37497" lon="9.16339">
        <ele>2.54</ele>
        <time>2017-10-10T16:31:04Z</time>
      </trkpt>
      <trkpt lat="41.37512" lon="9.16321">
        <ele>2.06</ele>
        <time>2017-10-10T16:31:15Z</time>
      </trkpt>
      <trkpt lat="41.37529" lon="9.16298">
        <ele>2.06</ele>
        <time>2017-10-10T16:31:28Z</time>
      </trkpt>
      <trkpt lat="41.37547" lon="9.16271">
        <ele>2.06</ele>
        <time>2017-10-10T16:31:41Z</time>
      </trkpt>
      <trkpt lat="41.37572" lon="9.16238">
        <ele>1.58</ele>
        <time>2017-10-10T16:31:56Z</time>
      </trkpt>
      <trkpt lat="41.37592" lon="9.16208">
        <ele>2.54</ele>
        <time>2017-10-10T16:32:09Z</time>
      </trkpt>
      <trkpt lat="41.37612" lon="9.16179">
        <ele>3.02</ele>
        <time>2017-10-10T16:32:21Z</time>
      </trkpt>
      <trkpt lat="41.37632" lon="9.16147">
        <ele>3.02</ele>
        <time>2017-10-10T16:32:33Z</time>
      </trkpt>
      <trkpt lat="41.37656" lon="9.16111">
        <ele>2.06</ele>
        <time>2017-10-10T16:32:46Z</time>
      </trkpt>
      <trkpt lat="41.37677" lon="9.16075">
        <ele>2.06</ele>
        <time>2017-10-10T16:32:59Z</time>
      </trkpt>
      <trkpt lat="41.37699" lon="9.1604">
        <ele>2.06</ele>
        <time>2017-10-10T16:33:12Z</time>
      </trkpt>
      <trkpt lat="41.37721" lon="9.16004">
        <ele>2.06</ele>
        <time>2017-10-10T16:33:25Z</time>
      </trkpt>
      <trkpt lat="41.37742" lon="9.15973">
        <ele>2.54</ele>
        <time>2017-10-10T16:33:37Z</time>
      </trkpt>
      <trkpt lat="41.37766" lon="9.15936">
        <ele>2.06</ele>
        <time>2017-10-10T16:33:50Z</time>
      </trkpt>
      <trkpt lat="41.37793" lon="9.15889">
        <ele>2.06</ele>
        <time>2017-10-10T16:34:06Z</time>
      </trkpt>
      <trkpt lat="41.3782" lon="9.15847">
        <ele>2.54</ele>
        <time>2017-10-10T16:34:22Z</time>
      </trkpt>
      <trkpt lat="41.37841" lon="9.15814">
        <ele>3.02</ele>
        <time>2017-10-10T16:34:35Z</time>
      </trkpt>
      <trkpt lat="41.37845" lon="9.15807">
        <ele>3.02</ele>
        <time>2017-10-10T16:34:38Z</time>
      </trkpt>
      <trkpt lat="41.37867" lon="9.15773">
        <ele>2.06</ele>
        <time>2017-10-10T16:34:52Z</time>
      </trkpt>
      <trkpt lat="41.37886" lon="9.15743">
        <ele>1.58</ele>
        <time>2017-10-10T16:35:05Z</time>
      </trkpt>
      <trkpt lat="41.37898" lon="9.15727">
        <ele>1.1</ele>
        <time>2017-10-10T16:35:13Z</time>
      </trkpt>
      <trkpt lat="41.37919" lon="9.15696">
        <ele>0.62</ele>
        <time>2017-10-10T16:35:29Z</time>
      </trkpt>
      <trkpt lat="41.37934" lon="9.15676">
        <ele>1.58</ele>
        <time>2017-10-10T16:35:41Z</time>
      </trkpt>
      <trkpt lat="41.37949" lon="9.15655">
        <ele>2.06</ele>
        <time>2017-10-10T16:35:54Z</time>
      </trkpt>
      <trkpt lat="41.37969" lon="9.15631">
        <ele>2.06</ele>
        <time>2017-10-10T16:36:07Z</time>
      </trkpt>
      <trkpt lat="41.37988" lon="9.15605">
        <ele>2.54</ele>
        <time>2017-10-10T16:36:19Z</time>
      </trkpt>
      <trkpt lat="41.38008" lon="9.15577">
        <ele>2.54</ele>
        <time>2017-10-10T16:36:31Z</time>
      </trkpt>
      <trkpt lat="41.3803" lon="9.15542">
        <ele>3.02</ele>
        <time>2017-10-10T16:36:45Z</time>
      </trkpt>
      <trkpt lat="41.3805" lon="9.15514">
        <ele>3.5</ele>
        <time>2017-10-10T16:36:57Z</time>
      </trkpt>
      <trkpt lat="41.3807" lon="9.15483">
        <ele>3.02</ele>
        <time>2017-10-10T16:37:10Z</time>
      </trkpt>
      <trkpt lat="41.38096" lon="9.15445">
        <ele>2.06</ele>
        <time>2017-10-10T16:37:25Z</time>
      </trkpt>
      <trkpt lat="41.38118" lon="9.15412">
        <ele>2.54</ele>
        <time>2017-10-10T16:37:38Z</time>
      </trkpt>
      <trkpt lat="41.38138" lon="9.15383">
        <ele>2.54</ele>
        <time>2017-10-10T16:37:50Z</time>
      </trkpt>
      <trkpt lat="41.38157" lon="9.15356">
        <ele>2.54</ele>
        <time>2017-10-10T16:38:01Z</time>
      </trkpt>
      <trkpt lat="41.38182" lon="9.15318">
        <ele>2.06</ele>
        <time>2017-10-10T16:38:16Z</time>
      </trkpt>
      <trkpt lat="41.38205" lon="9.15285">
        <ele>2.54</ele>
        <time>2017-10-10T16:38:29Z</time>
      </trkpt>
      <trkpt lat="41.38223" lon="9.15255">
        <ele>1.58</ele>
        <time>2017-10-10T16:38:41Z</time>
      </trkpt>
      <trkpt lat="41.38224" lon="9.15252">
        <ele>1.58</ele>
        <time>2017-10-10T16:38:42Z</time>
      </trkpt>
      <trkpt lat="41.38232" lon="9.15241">
        <ele>2.06</ele>
        <time>2017-10-10T16:38:47Z</time>
      </trkpt>
      <trkpt lat="41.38251" lon="9.1521">
        <ele>1.58</ele>
        <time>2017-10-10T16:39:01Z</time>
      </trkpt>
      <trkpt lat="41.38259" lon="9.15182">
        <ele>1.58</ele>
        <time>2017-10-10T16:39:17Z</time>
      </trkpt>
      <trkpt lat="41.38261" lon="9.15176">
        <ele>1.58</ele>
        <time>2017-10-10T16:39:30Z</time>
      </trkpt>
      <trkpt lat="41.38266" lon="9.15168">
        <ele>1.1</ele>
        <time>2017-10-10T16:39:41Z</time>
      </trkpt>
      <trkpt lat="41.38274" lon="9.15148">
        <ele>1.58</ele>
        <time>2017-10-10T16:39:55Z</time>
      </trkpt>
      <trkpt lat="41.38281" lon="9.15124">
        <ele>2.54</ele>
        <time>2017-10-10T16:40:09Z</time>
      </trkpt>
      <trkpt lat="41.38283" lon="9.15108">
        <ele>2.54</ele>
        <time>2017-10-10T16:40:17Z</time>
      </trkpt>
      <trkpt lat="41.38287" lon="9.15096">
        <ele>2.54</ele>
        <time>2017-10-10T16:40:24Z</time>
      </trkpt>
      <trkpt lat="41.38301" lon="9.15073">
        <ele>1.58</ele>
        <time>2017-10-10T16:40:36Z</time>
      </trkpt>
      <trkpt lat="41.38317" lon="9.15041">
        <ele>1.58</ele>
        <time>2017-10-10T16:40:49Z</time>
      </trkpt>
      <trkpt lat="41.38336" lon="9.15004">
        <ele>2.06</ele>
        <time>2017-10-10T16:41:04Z</time>
      </trkpt>
      <trkpt lat="41.38352" lon="9.14983">
        <ele>1.1</ele>
        <time>2017-10-10T16:41:14Z</time>
      </trkpt>
      <trkpt lat="41.38359" lon="9.14974">
        <ele>1.1</ele>
        <time>2017-10-10T16:41:18Z</time>
      </trkpt>
      <trkpt lat="41.38382" lon="9.14943">
        <ele>1.58</ele>
        <time>2017-10-10T16:41:32Z</time>
      </trkpt>
      <trkpt lat="41.38398" lon="9.1492">
        <ele>1.58</ele>
        <time>2017-10-10T16:41:42Z</time>
      </trkpt>
      <trkpt lat="41.38415" lon="9.14904">
        <ele>1.1</ele>
        <time>2017-10-10T16:41:51Z</time>
      </trkpt>
      <trkpt lat="41.38422" lon="9.14895">
        <ele>1.58</ele>
        <time>2017-10-10T16:41:55Z</time>
      </trkpt>
      <trkpt lat="41.38451" lon="9.14866">
        <ele>0.62</ele>
        <time>2017-10-10T16:42:10Z</time>
      </trkpt>
      <trkpt lat="41.3848" lon="9.14839">
        <ele>0.14</ele>
        <time>2017-10-10T16:42:24Z</time>
      </trkpt>
      <trkpt lat="41.38504" lon="9.14821">
        <ele>1.1</ele>
        <time>2017-10-10T16:42:35Z</time>
      </trkpt>
      <trkpt lat="41.38528" lon="9.14803">
        <ele>0.62</ele>
        <time>2017-10-10T16:42:46Z</time>
      </trkpt>
      <trkpt lat="41.38565" lon="9.14779">
        <ele>1.58</ele>
        <time>2017-10-10T16:43:02Z</time>
      </trkpt>
      <trkpt lat="41.38604" lon="9.14769">
        <ele>1.1</ele>
        <time>2017-10-10T16:43:17Z</time>
      </trkpt>
      <trkpt lat="41.38633" lon="9.14765">
        <ele>1.1</ele>
        <time>2017-10-10T16:43:28Z</time>
      </trkpt>
      <trkpt lat="41.38672" lon="9.14765">
        <ele>1.1</ele>
        <time>2017-10-10T16:43:42Z</time>
      </trkpt>
      <trkpt lat="41.38703" lon="9.14769">
        <ele>1.1</ele>
        <time>2017-10-10T16:43:53Z</time>
      </trkpt>
      <trkpt lat="41.38733" lon="9.14774">
        <ele>0.62</ele>
        <time>2017-10-10T16:44:04Z</time>
      </trkpt>
      <trkpt lat="41.38766" lon="9.14795">
        <ele>0.62</ele>
        <time>2017-10-10T16:44:17Z</time>
      </trkpt>
      <trkpt lat="41.38805" lon="9.14834">
        <ele>0.14</ele>
        <time>2017-10-10T16:44:34Z</time>
      </trkpt>
      <trkpt lat="41.38838" lon="9.14887">
        <ele>0.14</ele>
        <time>2017-10-10T16:44:52Z</time>
      </trkpt>
      <trkpt lat="41.38871" lon="9.1495">
        <ele>0.14</ele>
        <time>2017-10-10T16:45:12Z</time>
      </trkpt>
      <trkpt lat="41.38895" lon="9.15024">
        <ele>-1.3</ele>
        <time>2017-10-10T16:45:33Z</time>
      </trkpt>
      <trkpt lat="41.3891" lon="9.15092">
        <ele>-0.82</ele>
        <time>2017-10-10T16:45:51Z</time>
      </trkpt>
      <trkpt lat="41.38921" lon="9.15165">
        <ele>-0.34</ele>
        <time>2017-10-10T16:46:10Z</time>
      </trkpt>
      <trkpt lat="41.38928" lon="9.15237">
        <ele>1.1</ele>
        <time>2017-10-10T16:46:30Z</time>
      </trkpt>
      <trkpt lat="41.38935" lon="9.15314">
        <ele>1.1</ele>
        <time>2017-10-10T16:46:54Z</time>
      </trkpt>
      <trkpt lat="41.38935" lon="9.15372">
        <ele>1.58</ele>
        <time>2017-10-10T16:47:13Z</time>
      </trkpt>
      <trkpt lat="41.38932" lon="9.15428">
        <ele>1.58</ele>
        <time>2017-10-10T16:47:31Z</time>
      </trkpt>
      <trkpt lat="41.38929" lon="9.1549">
        <ele>0.62</ele>
        <time>2017-10-10T16:47:51Z</time>
      </trkpt>
      <trkpt lat="41.38929" lon="9.15557">
        <ele>1.1</ele>
        <time>2017-10-10T16:48:13Z</time>
      </trkpt>
      <trkpt lat="41.38928" lon="9.15628">
        <ele>0.14</ele>
        <time>2017-10-10T16:48:37Z</time>
      </trkpt>
      <trkpt lat="41.38921" lon="9.15705">
        <ele>-1.3</ele>
        <time>2017-10-10T16:49:03Z</time>
      </trkpt>
      <trkpt lat="41.38914" lon="9.1578">
        <ele>-0.34</ele>
        <time>2017-10-10T16:49:28Z</time>
      </trkpt>
      <trkpt lat="41.38905" lon="9.15864">
        <ele>-0.82</ele>
        <time>2017-10-10T16:49:56Z</time>
      </trkpt>
      <trkpt lat="41.38901" lon="9.15916">
        <ele>-0.34</ele>
        <time>2017-10-10T16:50:15Z</time>
      </trkpt>
      <trkpt lat="41.38899" lon="9.15974">
        <ele>-0.82</ele>
        <time>2017-10-10T16:50:43Z</time>
      </trkpt>
      <trkpt lat="41.38897" lon="9.1602">
        <ele>-0.34</ele>
        <time>2017-10-10T16:51:08Z</time>
      </trkpt>
      <trkpt lat="41.38896" lon="9.16063">
        <ele>-2.27</ele>
        <time>2017-10-10T16:51:35Z</time>
      </trkpt>
      <trkpt lat="41.38892" lon="9.16099">
        <ele>-1.3</ele>
        <time>2017-10-10T16:51:57Z</time>
      </trkpt>
      <trkpt lat="41.38886" lon="9.16144">
        <ele>1.1</ele>
        <time>2017-10-10T16:52:24Z</time>
      </trkpt>
      <trkpt lat="41.38879" lon="9.16188">
        <ele>2.54</ele>
        <time>2017-10-10T16:52:52Z</time>
      </trkpt>
      <trkpt lat="41.3887" lon="9.16232">
        <ele>2.54</ele>
        <time>2017-10-10T16:53:20Z</time>
      </trkpt>
      <trkpt lat="41.38865" lon="9.16291">
        <ele>0.62</ele>
        <time>2017-10-10T16:53:56Z</time>
      </trkpt>
      <trkpt lat="41.38868" lon="9.16333">
        <ele>0.62</ele>
        <time>2017-10-10T16:54:22Z</time>
      </trkpt>
      <trkpt lat="41.38877" lon="9.16376">
        <ele>3.5</ele>
        <time>2017-10-10T16:54:51Z</time>
      </trkpt>
      <trkpt lat="41.3888" lon="9.16419">
        <ele>3.98</ele>
        <time>2017-10-10T16:55:19Z</time>
      </trkpt>
      <trkpt lat="41.3889" lon="9.16441">
        <ele>4.46</ele>
        <time>2017-10-10T16:55:36Z</time>
      </trkpt>
      <trkpt lat="41.38892" lon="9.16446">
        <ele>3.98</ele>
        <time>2017-10-10T16:55:56Z</time>
      </trkpt>
      <trkpt lat="41.38894" lon="9.16445">
        <ele>3.98</ele>
        <time>2017-10-10T16:55:58Z</time>
      </trkpt>
      <trkpt lat="41.38901" lon="9.16422">
        <ele>2.06</ele>
        <time>2017-10-10T16:56:15Z</time>
      </trkpt>
      <trkpt lat="41.38887" lon="9.16388">
        <ele>-0.34</ele>
        <time>2017-10-10T16:56:40Z</time>
      </trkpt>
      <trkpt lat="41.38878" lon="9.16357">
        <ele>2.06</ele>
        <time>2017-10-10T16:57:08Z</time>
      </trkpt>
      <trkpt lat="41.38874" lon="9.16325">
        <ele>3.02</ele>
        <time>2017-10-10T16:57:38Z</time>
      </trkpt>
      <trkpt lat="41.3887" lon="9.16292">
        <ele>1.1</ele>
        <time>2017-10-10T16:58:07Z</time>
      </trkpt>
      <trkpt lat="41.38875" lon="9.16255">
        <ele>0.62</ele>
        <time>2017-10-10T16:58:39Z</time>
      </trkpt>
      <trkpt lat="41.38877" lon="9.16247">
        <ele>0.62</ele>
        <time>2017-10-10T16:59:00Z</time>
      </trkpt>
      <trkpt lat="41.3887" lon="9.16267">
        <ele>-0.82</ele>
        <time>2017-10-10T16:59:16Z</time>
      </trkpt>
      <trkpt lat="41.38854" lon="9.16291">
        <ele>0.62</ele>
        <time>2017-10-10T16:59:43Z</time>
      </trkpt>
      <trkpt lat="41.38841" lon="9.16299">
        <ele>0.14</ele>
        <time>2017-10-10T17:00:02Z</time>
      </trkpt>
      <trkpt lat="41.38847" lon="9.16301">
        <ele>0.62</ele>
        <time>2017-10-10T17:00:14Z</time>
      </trkpt>
      <trkpt lat="41.38864" lon="9.16286">
        <ele>1.1</ele>
        <time>2017-10-10T17:00:38Z</time>
      </trkpt>
      <trkpt lat="41.38869" lon="9.16256">
        <ele>1.58</ele>
        <time>2017-10-10T17:01:07Z</time>
      </trkpt>
      <trkpt lat="41.38872" lon="9.16228">
        <ele>2.54</ele>
        <time>2017-10-10T17:01:32Z</time>
      </trkpt>
      <trkpt lat="41.38877" lon="9.16196">
        <ele>1.58</ele>
        <time>2017-10-10T17:01:59Z</time>
      </trkpt>
      <trkpt lat="41.38883" lon="9.16161">
        <ele>1.58</ele>
        <time>2017-10-10T17:02:30Z</time>
      </trkpt>
      <trkpt lat="41.38886" lon="9.16136">
        <ele>0.14</ele>
        <time>2017-10-10T17:02:54Z</time>
      </trkpt>
      <trkpt lat="41.38885" lon="9.16102">
        <ele>-0.82</ele>
        <time>2017-10-10T17:03:26Z</time>
      </trkpt>
      <trkpt lat="41.38885" lon="9.16071">
        <ele>-1.79</ele>
        <time>2017-10-10T17:03:54Z</time>
      </trkpt>
      <trkpt lat="41.38883" lon="9.16049">
        <ele>-0.34</ele>
        <time>2017-10-10T17:04:18Z</time>
      </trkpt>
      <trkpt lat="41.38879" lon="9.16034">
        <ele>-0.34</ele>
        <time>2017-10-10T17:04:47Z</time>
      </trkpt>
      <trkpt lat="41.38879" lon="9.16033">
        <ele>0.14</ele>
        <time>2017-10-10T17:04:57Z</time>
      </trkpt>
    </trkseg>
  </trk>
</gpx>